createdAt,value
2017-09-14T00:02:09.733Z,2.50
2017-09-14T00:04:37.337Z,2.97
2017-09-14T00:07:04.940Z,3.27
2017-09-14T00:09:32.546Z,2.47
2017-09-14T00:12:01.048Z,2.00
2017-09-14T00:14:28.695Z,3.17
2017-09-14T00:16:57.080Z,3.30
2017-09-14T00:19:25.560Z,2.10
2017-09-14T00:21:53.927Z,3.30
2017-09-14T00:24:22.345Z,3.27
2017-09-14T00:26:49.944Z,2.20
2017-09-14T00:29:17.552Z,5.00
2017-09-14T00:31:45.214Z,6.90
2017-09-14T00:34:12.812Z,9.27
2017-09-14T00:36:40.412Z,2.30
2017-09-14T00:39:08.006Z,3.57
2017-09-14T00:41:35.667Z,4.47
2017-09-14T00:44:03.316Z,4.13
2017-09-14T00:46:31.785Z,3.70
2017-09-14T00:49:00.155Z,2.50
2017-09-14T00:51:29.296Z,4.23
2017-09-14T00:53:56.895Z,5.80
2017-09-14T00:56:24.528Z,4.50
2017-09-14T00:58:52.170Z,1.43
2017-09-14T01:01:19.841Z,5.27
2017-09-14T01:03:47.436Z,5.97
2017-09-14T01:06:15.040Z,6.77
2017-09-14T01:08:43.449Z,3.83
2017-09-14T01:11:11.052Z,4.37
2017-09-14T01:13:38.756Z,5.53
2017-09-14T01:16:07.166Z,3.07
2017-09-14T01:18:34.809Z,5.70
2017-09-14T01:21:02.441Z,2.50
2017-09-14T01:23:30.070Z,5.30
2017-09-14T01:25:57.689Z,4.97
2017-09-14T01:28:25.301Z,5.23
2017-09-14T01:30:52.916Z,5.77
2017-09-14T01:33:20.518Z,3.33
2017-09-14T01:35:48.235Z,4.47
2017-09-14T01:38:16.720Z,5.13
2017-09-14T01:40:45.092Z,4.27
2017-09-14T01:43:13.462Z,6.90
2017-09-14T01:45:41.828Z,4.53
2017-09-14T01:48:10.241Z,3.23
2017-09-14T01:50:37.905Z,4.30
2017-09-14T01:53:05.549Z,9.57
2017-09-14T01:55:33.939Z,7.43
2017-09-14T01:58:02.329Z,5.93
2017-09-14T02:00:29.927Z,9.27
2017-09-14T02:02:57.584Z,5.07
2017-09-14T02:05:25.228Z,4.10
2017-09-14T02:07:52.834Z,4.40
2017-09-14T02:10:20.488Z,5.27
2017-09-14T02:12:48.205Z,6.47
2017-09-14T02:15:15.816Z,3.77
2017-09-14T02:17:43.416Z,7.63
2017-09-14T02:20:11.921Z,10.30
2017-09-14T02:22:39.552Z,4.87
2017-09-14T02:25:07.949Z,5.20
2017-09-14T02:27:35.584Z,9.03
2017-09-14T02:30:03.197Z,5.00
2017-09-14T02:32:30.828Z,6.20
2017-09-14T02:34:59.589Z,12.00
2017-09-14T02:37:27.194Z,4.40
2017-09-14T02:39:54.801Z,5.53
2017-09-14T02:42:22.516Z,6.10
2017-09-14T02:44:50.187Z,9.63
2017-09-14T02:47:17.798Z,6.97
2017-09-14T02:49:45.447Z,11.00
2017-09-14T02:52:13.165Z,9.37
2017-09-14T02:54:40.824Z,13.40
2017-09-14T02:57:09.196Z,8.53
2017-09-14T02:59:37.583Z,4.80
2017-09-14T03:02:05.972Z,13.10
2017-09-14T03:04:33.579Z,6.33
2017-09-14T03:07:01.291Z,3.00
2017-09-14T03:09:29.661Z,6.90
2017-09-14T03:11:58.035Z,8.27
2017-09-14T03:14:26.413Z,7.87
2017-09-14T03:16:54.784Z,6.90
2017-09-14T03:19:22.476Z,7.63
2017-09-14T03:21:50.120Z,14.80
2017-09-14T03:24:18.485Z,5.20
2017-09-14T03:26:46.131Z,9.10
2017-09-14T03:29:13.881Z,4.90
2017-09-14T03:31:41.484Z,11.10
2017-09-14T03:34:09.885Z,10.13
2017-09-14T03:36:37.488Z,6.80
2017-09-14T03:39:05.096Z,12.70
2017-09-14T03:41:33.464Z,3.93
2017-09-14T03:44:02.615Z,6.73
2017-09-14T03:46:30.216Z,8.07
2017-09-14T03:48:57.821Z,7.00
2017-09-14T03:51:25.428Z,7.13
2017-09-14T03:53:53.072Z,8.33
2017-09-14T03:56:20.672Z,6.60
2017-09-14T03:58:48.357Z,13.07
2017-09-14T04:01:16.717Z,5.47
2017-09-14T04:03:45.085Z,5.00
2017-09-14T04:06:12.678Z,6.23
2017-09-14T04:08:40.286Z,4.93
2017-09-14T04:11:07.951Z,8.17
2017-09-14T04:13:35.593Z,8.10
2017-09-14T04:16:03.194Z,4.43
2017-09-14T04:18:30.892Z,6.60
2017-09-14T04:20:58.496Z,4.07
2017-09-14T04:23:26.120Z,2.10
2017-09-14T04:25:53.780Z,4.70
2017-09-14T04:28:21.413Z,2.27
2017-09-14T04:30:49.060Z,5.77
2017-09-14T04:33:16.772Z,2.80
2017-09-14T04:35:44.404Z,3.93
2017-09-14T04:38:12.100Z,8.57
2017-09-14T04:40:39.732Z,6.33
2017-09-14T04:43:08.148Z,3.83
2017-09-14T04:45:35.801Z,5.60
2017-09-14T04:48:03.428Z,3.93
2017-09-14T04:50:31.100Z,8.97
2017-09-14T04:52:58.697Z,7.77
2017-09-14T04:55:26.328Z,7.10
2017-09-14T04:57:54.740Z,7.73
2017-09-14T05:00:23.147Z,5.40
2017-09-14T05:02:50.752Z,4.57
2017-09-14T05:05:19.132Z,10.50
2017-09-14T05:07:47.537Z,10.80
2017-09-14T05:10:15.174Z,9.60
2017-09-14T05:12:43.581Z,13.93
2017-09-14T05:15:11.347Z,10.43
2017-09-14T05:17:38.949Z,10.50
2017-09-14T05:20:06.549Z,12.80
2017-09-14T05:22:34.916Z,8.53
2017-09-14T05:25:02.524Z,14.70
2017-09-14T05:27:30.124Z,10.83
2017-09-14T05:29:57.771Z,7.87
2017-09-14T05:32:25.373Z,8.80
2017-09-14T05:34:53.740Z,14.90
2017-09-14T05:37:21.413Z,12.27
2017-09-14T05:39:49.044Z,11.27
2017-09-14T05:42:16.648Z,15.40
2017-09-14T05:44:45.057Z,18.03
2017-09-14T05:47:12.704Z,11.40
2017-09-14T05:49:40.300Z,8.00
2017-09-14T05:52:07.928Z,16.20
2017-09-14T05:54:35.592Z,6.60
2017-09-14T05:57:03.261Z,19.60
2017-09-14T05:59:30.920Z,16.37
2017-09-14T06:01:58.581Z,13.70
2017-09-14T06:04:26.190Z,10.43
2017-09-14T06:06:53.793Z,12.33
2017-09-14T06:09:22.172Z,15.70
2017-09-14T06:11:50.547Z,7.47
2017-09-14T06:14:18.920Z,18.57
2017-09-14T06:16:47.429Z,17.87
2017-09-14T06:19:15.033Z,9.00
2017-09-14T06:21:42.752Z,12.17
2017-09-14T06:24:10.356Z,18.87
2017-09-14T06:26:38.006Z,16.03
2017-09-14T06:29:05.610Z,11.53
2017-09-14T06:31:34.012Z,14.27
2017-09-14T06:34:02.379Z,13.10
2017-09-14T06:36:30.747Z,15.83
2017-09-14T06:38:58.385Z,10.33
2017-09-14T06:41:25.988Z,9.87
2017-09-14T06:43:54.356Z,9.53
2017-09-14T06:46:22.755Z,9.17
2017-09-14T06:48:51.164Z,11.50
2017-09-14T06:51:18.806Z,11.73
2017-09-14T06:53:46.405Z,8.33
2017-09-14T06:56:14.004Z,11.83
2017-09-14T06:58:41.630Z,7.23
2017-09-14T07:01:09.236Z,10.33
2017-09-14T07:03:36.837Z,8.43
2017-09-14T07:06:04.436Z,8.70
2017-09-14T07:08:32.041Z,13.00
2017-09-14T07:10:59.654Z,7.07
2017-09-14T07:13:27.248Z,7.30
2017-09-14T07:15:54.894Z,7.10
2017-09-14T07:18:22.497Z,5.87
2017-09-14T07:20:50.105Z,7.83
2017-09-14T07:23:17.704Z,11.70
2017-09-14T07:25:45.329Z,4.60
2017-09-14T07:28:12.992Z,8.03
2017-09-14T07:30:40.594Z,6.93
2017-09-14T07:33:08.220Z,5.10
2017-09-14T07:35:35.913Z,6.77
2017-09-14T07:38:03.516Z,4.33
2017-09-14T07:40:31.896Z,12.93
2017-09-14T07:43:00.320Z,3.80
2017-09-14T07:45:27.920Z,5.17
2017-09-14T07:47:55.523Z,7.07
2017-09-14T07:50:23.120Z,4.70
2017-09-14T07:52:50.715Z,3.73
2017-09-14T07:55:18.321Z,5.63
2017-09-14T07:57:45.917Z,4.60
2017-09-14T08:00:14.429Z,2.80
2017-09-14T08:02:43.063Z,3.40
2017-09-14T08:05:10.668Z,2.37
2017-09-14T08:07:38.271Z,3.60
2017-09-14T08:10:05.873Z,5.27
2017-09-14T08:12:39.128Z,3.90
2017-09-14T08:15:06.741Z,3.73
2017-09-14T08:17:34.445Z,3.20
2017-09-14T08:20:02.039Z,4.33
2017-09-14T08:22:29.636Z,3.20
2017-09-14T08:24:57.236Z,1.60
2017-09-14T08:27:24.835Z,2.43
2017-09-14T08:29:52.438Z,2.57
2017-09-14T08:32:20.840Z,4.27
2017-09-14T08:34:48.439Z,2.70
2017-09-14T08:37:16.045Z,2.73
2017-09-14T08:39:44.417Z,1.90
2017-09-14T08:42:12.793Z,14.90
2017-09-14T08:44:41.199Z,2.20
2017-09-14T08:47:08.801Z,2.67
2017-09-14T08:49:36.413Z,2.60
2017-09-14T08:52:04.772Z,3.27
2017-09-14T08:54:32.379Z,1.70
2017-09-14T08:56:59.984Z,1.77
2017-09-14T08:59:27.680Z,3.13
2017-09-14T09:01:56.044Z,1.97
2017-09-14T09:04:24.416Z,3.07
2017-09-14T09:06:52.025Z,2.40
2017-09-14T09:09:19.632Z,2.60
2017-09-14T09:11:47.241Z,4.53
2017-09-14T09:14:15.881Z,5.40
2017-09-14T09:16:44.264Z,2.70
2017-09-14T09:19:11.964Z,2.63
2017-09-14T09:21:47.832Z,4.10
2017-09-14T09:24:16.207Z,2.77
2017-09-14T09:26:44.585Z,2.70
2017-09-14T09:29:12.952Z,4.20
2017-09-14T09:31:40.560Z,2.50
2017-09-14T09:34:08.162Z,2.90
2017-09-14T09:36:35.760Z,8.17
2017-09-14T09:39:04.136Z,4.53
2017-09-14T09:41:32.557Z,4.40
2017-09-14T09:44:00.169Z,3.50
2017-09-14T09:46:28.610Z,2.93
2017-09-14T09:48:56.505Z,2.90
2017-09-14T09:51:24.197Z,3.97
2017-09-14T09:53:51.868Z,2.30
2017-09-14T09:56:19.483Z,2.60
2017-09-14T09:58:47.128Z,3.03
2017-09-14T10:01:14.740Z,4.00
2017-09-14T10:03:43.127Z,2.90
2017-09-14T10:06:10.787Z,5.13
2017-09-14T10:08:39.153Z,3.13
2017-09-14T10:11:08.491Z,2.10
2017-09-14T10:13:37.436Z,3.03
2017-09-14T10:16:05.041Z,2.20
2017-09-14T10:18:32.687Z,2.30
2017-09-14T10:21:01.052Z,2.10
2017-09-14T10:23:29.433Z,9.43
2017-09-14T10:25:57.800Z,4.50
2017-09-14T10:28:25.437Z,3.50
2017-09-14T10:30:53.045Z,3.40
2017-09-14T10:33:20.654Z,3.43
2017-09-14T10:35:48.316Z,3.10
2017-09-14T10:38:15.917Z,2.73
2017-09-14T10:40:44.577Z,2.30
2017-09-14T10:43:12.180Z,2.70
2017-09-14T10:45:40.593Z,3.27
2017-09-14T10:48:08.246Z,1.80
2017-09-14T10:50:35.888Z,3.53
2017-09-14T10:53:03.532Z,2.07
2017-09-14T10:55:31.900Z,3.53
2017-09-14T10:57:59.505Z,3.53
2017-09-14T11:00:27.112Z,3.57
2017-09-14T11:02:54.753Z,3.03
2017-09-14T11:05:22.476Z,2.07
2017-09-14T11:07:50.868Z,3.00
2017-09-14T11:10:18.525Z,3.60
2017-09-14T11:12:46.934Z,2.17
2017-09-14T11:15:14.539Z,2.93
2017-09-14T11:17:44.259Z,3.23
2017-09-14T11:20:12.625Z,3.23
2017-09-14T11:22:40.228Z,2.70
2017-09-14T11:25:07.834Z,4.97
2017-09-14T11:27:35.540Z,2.20
2017-09-14T11:30:03.961Z,3.67
2017-09-14T11:32:31.636Z,4.87
2017-09-14T11:34:59.249Z,3.17
2017-09-14T11:37:27.608Z,2.40
2017-09-14T11:39:56.017Z,2.30
2017-09-14T11:42:23.614Z,2.50
2017-09-14T11:44:51.206Z,1.90
2017-09-14T11:47:18.805Z,1.63
2017-09-14T11:49:46.404Z,1.83
2017-09-14T11:52:14.032Z,2.23
2017-09-14T11:54:41.636Z,2.33
2017-09-14T11:57:09.601Z,3.43
2017-09-14T11:59:37.201Z,3.43
2017-09-14T12:02:05.637Z,3.20
2017-09-14T12:04:33.403Z,4.50
2017-09-14T12:07:01.169Z,2.87
2017-09-14T12:09:28.764Z,3.60
2017-09-14T12:11:56.564Z,1.97
2017-09-14T12:14:24.180Z,2.93
2017-09-14T12:16:51.876Z,2.27
2017-09-14T12:19:20.239Z,1.70
2017-09-14T12:21:48.604Z,1.07
2017-09-14T12:24:17.735Z,1.87
2017-09-14T12:26:46.097Z,1.80
2017-09-14T12:29:15.645Z,1.63
2017-09-14T12:31:44.045Z,1.40
2017-09-14T12:34:11.710Z,6.17
2017-09-14T12:36:40.114Z,1.90
2017-09-14T12:39:07.748Z,3.03
2017-09-14T12:41:36.150Z,2.10
2017-09-14T12:44:03.765Z,1.47
2017-09-14T12:46:31.402Z,1.60
2017-09-14T12:48:58.999Z,6.20
2017-09-14T12:51:27.360Z,1.50
2017-09-14T12:53:55.003Z,3.00
2017-09-14T12:56:22.610Z,2.00
2017-09-14T12:58:50.981Z,4.63
2017-09-14T13:01:18.665Z,1.20
2017-09-14T13:03:47.029Z,2.20
2017-09-14T13:06:15.446Z,1.63
2017-09-14T13:08:43.048Z,1.30
2017-09-14T13:11:10.649Z,1.07
2017-09-14T13:13:39.017Z,1.47
2017-09-14T13:16:07.418Z,1.00
2017-09-14T13:18:35.081Z,2.30
2017-09-14T13:21:02.719Z,1.93
2017-09-14T13:23:31.122Z,1.97
2017-09-14T13:25:58.773Z,1.83
2017-09-14T13:28:27.135Z,1.33
2017-09-14T13:30:55.515Z,2.90
2017-09-14T13:33:23.148Z,1.23
2017-09-14T13:35:50.754Z,1.60
2017-09-14T13:38:19.153Z,0.93
2017-09-14T13:40:46.796Z,1.40
2017-09-14T13:43:15.172Z,2.80
2017-09-14T13:45:43.535Z,0.97
2017-09-14T13:48:11.136Z,2.00
2017-09-14T13:50:38.729Z,4.60
2017-09-14T13:53:06.327Z,1.60
2017-09-14T13:55:34.703Z,1.50
2017-09-14T13:58:02.394Z,6.00
2017-09-14T14:00:29.993Z,8.10
2017-09-14T14:02:57.596Z,1.83
2017-09-14T14:05:25.971Z,5.73
2017-09-14T14:07:54.397Z,5.40
2017-09-14T14:10:22.033Z,4.87
2017-09-14T14:12:50.399Z,1.23
2017-09-14T14:15:18.804Z,2.73
2017-09-14T14:17:46.460Z,1.57
2017-09-14T14:20:14.853Z,2.43
2017-09-14T14:22:42.464Z,2.30
2017-09-14T14:25:10.073Z,7.50
2017-09-14T14:27:37.721Z,5.20
2017-09-14T14:30:06.091Z,4.53
2017-09-14T14:32:34.524Z,5.80
2017-09-14T14:35:02.135Z,5.23
2017-09-14T14:37:30.501Z,3.73
2017-09-14T14:39:58.109Z,4.90
2017-09-14T14:42:25.726Z,5.40
2017-09-14T14:44:54.133Z,3.87
2017-09-14T14:47:21.800Z,4.53
2017-09-14T14:49:49.437Z,3.40
2017-09-14T14:52:17.812Z,2.33
2017-09-14T14:54:45.445Z,4.30
2017-09-14T14:57:13.040Z,6.43
2017-09-14T14:59:41.511Z,1.00
2017-09-14T15:02:10.580Z,2.53
2017-09-14T15:04:38.212Z,1.40
2017-09-14T15:07:05.812Z,2.47
2017-09-14T15:09:33.424Z,1.13
2017-09-14T15:12:01.823Z,2.10
2017-09-14T15:14:29.473Z,4.00
2017-09-14T15:16:57.131Z,0.90
2017-09-14T15:19:24.738Z,1.83
2017-09-14T15:21:52.344Z,1.60
2017-09-14T15:24:20.717Z,2.20
2017-09-14T15:26:49.084Z,1.10
2017-09-14T15:29:16.686Z,1.13
2017-09-14T15:31:44.289Z,0.73
2017-09-14T15:34:11.922Z,1.53
2017-09-14T15:36:39.537Z,4.57
2017-09-14T15:42:27.530Z,1.73
2017-09-14T15:45:00.920Z,3.40
2017-09-14T15:47:28.532Z,1.80
2017-09-14T15:50:01.900Z,6.43
2017-09-14T15:52:29.505Z,1.43
2017-09-14T15:54:57.117Z,2.10
2017-09-14T15:57:24.721Z,2.03
2017-09-14T15:59:52.377Z,1.93
2017-09-14T16:02:20.096Z,2.87
2017-09-14T16:04:47.760Z,3.63
2017-09-14T16:07:15.365Z,8.07
2017-09-14T16:09:42.977Z,14.30
2017-09-14T16:12:10.580Z,33.13
2017-09-14T16:14:38.210Z,22.63
2017-09-14T16:17:05.889Z,32.67
2017-09-14T16:19:33.489Z,25.23
2017-09-14T16:22:01.148Z,37.13
2017-09-14T16:24:28.756Z,30.73
2017-09-14T16:26:56.407Z,26.70
2017-09-14T16:29:24.772Z,34.37
2017-09-14T16:31:53.168Z,35.03
2017-09-14T16:34:21.548Z,33.00
2017-09-14T16:36:49.918Z,28.40
2017-09-14T16:39:18.328Z,26.40
2017-09-14T16:41:46.112Z,21.43
2017-09-14T16:44:13.948Z,29.60
2017-09-14T16:46:41.552Z,21.93
2017-09-14T16:49:09.161Z,29.07
2017-09-14T16:51:37.532Z,25.00
2017-09-14T16:54:05.899Z,24.70
2017-09-14T16:56:33.549Z,30.20
2017-09-14T16:59:01.171Z,32.07
2017-09-14T17:01:28.827Z,27.40
2017-09-14T17:03:56.486Z,32.53
2017-09-14T17:06:24.140Z,29.03
2017-09-14T17:08:52.668Z,31.37
2017-09-14T17:11:20.352Z,26.23
2017-09-14T17:13:48.001Z,29.03
2017-09-14T17:16:15.720Z,37.23
2017-09-14T17:18:43.328Z,31.90
2017-09-14T17:21:10.930Z,24.30
2017-09-14T17:23:39.301Z,32.57
2017-09-14T17:26:07.713Z,29.53
2017-09-14T17:28:35.358Z,33.70
2017-09-14T17:31:03.860Z,24.40
2017-09-14T17:33:31.468Z,24.60
2017-09-14T17:35:59.179Z,31.23
2017-09-14T17:38:26.787Z,28.60
2017-09-14T17:40:54.500Z,31.63
2017-09-14T17:43:22.167Z,30.30
2017-09-14T17:45:49.833Z,31.30
2017-09-14T17:48:17.498Z,24.23
2017-09-14T17:50:45.148Z,35.97
2017-09-14T17:53:12.758Z,28.23
2017-09-14T17:55:40.482Z,23.17
2017-09-14T17:58:08.088Z,31.83
2017-09-14T18:00:35.739Z,30.60
2017-09-14T18:03:03.370Z,22.60
2017-09-14T18:05:31.031Z,29.20
2017-09-14T18:07:58.632Z,27.37
2017-09-14T18:10:26.246Z,30.50
2017-09-14T18:12:54.620Z,34.23
2017-09-14T18:15:22.994Z,30.10
2017-09-14T18:17:51.366Z,29.80
2017-09-14T18:20:19.743Z,30.23
2017-09-14T18:22:47.433Z,36.70
2017-09-14T18:25:15.046Z,26.93
2017-09-14T18:27:42.656Z,27.80
2017-09-14T18:30:10.321Z,28.27
2017-09-14T18:32:38.553Z,31.63
2017-09-14T18:35:07.321Z,25.93
2017-09-14T18:37:34.964Z,34.20
2017-09-14T18:40:02.664Z,34.43
2017-09-14T18:42:30.381Z,36.97
2017-09-14T18:44:58.040Z,33.57
2017-09-14T18:47:25.650Z,30.20
2017-09-14T18:49:53.373Z,34.50
2017-09-14T18:52:21.138Z,36.03
2017-09-14T18:54:48.792Z,39.47
2017-09-14T18:57:16.492Z,38.43
2017-09-14T18:59:44.102Z,36.83
2017-09-14T19:02:12.530Z,35.57
2017-09-14T19:04:40.181Z,28.80
2017-09-14T19:07:07.959Z,29.90
2017-09-14T19:09:35.642Z,26.13
2017-09-14T19:12:03.381Z,31.27
2017-09-14T19:14:31.023Z,36.63
2017-09-14T19:16:58.692Z,27.43
2017-09-14T19:19:26.480Z,32.40
2017-09-14T19:21:54.093Z,37.03
2017-09-14T19:24:23.445Z,31.03
2017-09-14T19:26:51.928Z,34.73
2017-09-14T19:29:19.807Z,32.60
2017-09-14T19:31:48.510Z,30.20
2017-09-14T19:34:16.987Z,39.13
2017-09-14T19:36:44.699Z,26.57
2017-09-14T19:39:12.312Z,30.97
2017-09-14T19:41:39.953Z,28.87
2017-09-14T19:44:07.566Z,35.03
2017-09-14T19:46:35.941Z,30.83
2017-09-14T19:49:04.360Z,22.83
2017-09-14T19:51:32.006Z,23.80
2017-09-14T19:53:59.665Z,32.90
2017-09-14T19:56:27.295Z,30.13
2017-09-14T19:58:54.951Z,27.70
2017-09-14T20:01:22.658Z,24.03
2017-09-14T20:03:50.327Z,29.57
2017-09-14T20:06:18.036Z,22.50
2017-09-14T20:08:45.707Z,41.53
2017-09-14T20:11:13.416Z,26.03
2017-09-14T20:13:41.032Z,27.00
2017-09-14T20:16:08.728Z,28.93
2017-09-14T20:18:37.425Z,22.73
2017-09-14T20:21:05.032Z,24.87
2017-09-14T20:23:32.678Z,26.77
2017-09-14T20:26:00.356Z,27.53
2017-09-14T20:28:28.111Z,27.37
2017-09-14T20:30:55.717Z,27.80
2017-09-14T20:33:24.217Z,21.27
2017-09-14T20:35:52.637Z,25.97
2017-09-14T20:38:20.260Z,26.20
2017-09-14T20:40:48.915Z,23.57
2017-09-14T20:43:18.489Z,19.43
2017-09-14T20:45:46.124Z,25.40
2017-09-14T20:48:13.791Z,25.90
2017-09-14T20:50:41.564Z,26.37
2017-09-14T20:53:09.221Z,21.07
2017-09-14T20:55:36.981Z,30.70
2017-09-14T20:58:04.581Z,25.83
2017-09-14T21:00:32.189Z,25.23
2017-09-14T21:03:00.560Z,22.20
2017-09-14T21:05:28.971Z,24.33
2017-09-14T21:07:56.609Z,26.17
2017-09-14T21:10:24.980Z,21.90
2017-09-14T21:12:53.393Z,24.63
2017-09-14T21:15:21.183Z,23.03
2017-09-14T21:17:48.816Z,22.80
2017-09-14T21:20:16.470Z,22.87
2017-09-14T21:22:44.242Z,22.10
2017-09-14T21:25:11.905Z,20.13
2017-09-14T21:27:39.572Z,19.00
2017-09-14T21:30:07.184Z,23.60
2017-09-14T21:32:34.830Z,25.97
2017-09-14T21:35:02.537Z,26.50
2017-09-14T21:37:30.932Z,24.90
2017-09-14T21:39:58.601Z,23.47
2017-09-14T21:42:26.210Z,27.03
2017-09-14T21:44:53.825Z,38.93
2017-09-14T21:47:21.489Z,33.83
2017-09-14T21:49:49.127Z,27.23
2017-09-14T21:52:17.541Z,23.03
2017-09-14T21:54:45.272Z,24.43
2017-09-14T21:57:13.652Z,23.57
2017-09-14T21:59:42.072Z,18.50
2017-09-14T22:02:09.676Z,21.43
2017-09-14T22:04:38.047Z,20.33
2017-09-14T22:07:05.661Z,22.40
2017-09-14T22:09:33.312Z,20.73
2017-09-14T22:12:01.832Z,15.93
2017-09-14T22:14:29.432Z,15.83
2017-09-14T22:16:57.040Z,14.67
2017-09-14T22:19:24.688Z,17.80
2017-09-14T22:21:52.296Z,17.37
2017-09-14T22:24:19.900Z,10.00
2017-09-14T22:26:48.285Z,12.50
2017-09-14T22:29:16.657Z,15.07
2017-09-14T22:31:45.096Z,14.50
2017-09-14T22:34:12.808Z,13.73
2017-09-14T22:36:41.182Z,14.43
2017-09-14T22:39:09.568Z,12.83
2017-09-14T22:41:37.932Z,14.57
2017-09-14T22:44:06.301Z,16.33
2017-09-14T22:46:34.000Z,17.87
2017-09-14T22:49:01.661Z,12.93
2017-09-14T22:51:29.270Z,12.83
2017-09-14T22:53:56.872Z,14.00
2017-09-14T22:56:25.272Z,11.07
2017-09-14T22:58:52.927Z,13.07
2017-09-14T23:01:20.580Z,9.73
2017-09-14T23:03:48.994Z,9.80
2017-09-14T23:06:16.633Z,11.70
2017-09-14T23:08:44.289Z,12.17
2017-09-14T23:11:12.654Z,8.63
2017-09-14T23:13:41.052Z,11.10
2017-09-14T23:16:09.591Z,11.07
2017-09-14T23:18:37.226Z,13.00
2017-09-14T23:21:04.825Z,8.80
2017-09-14T23:23:32.461Z,12.43
2017-09-14T23:26:00.066Z,11.23
2017-09-14T23:28:28.468Z,10.50
2017-09-14T23:30:56.069Z,11.20
2017-09-14T23:33:23.676Z,9.50
2017-09-14T23:35:52.036Z,6.13
2017-09-14T23:38:19.669Z,8.97
2017-09-14T23:40:47.285Z,10.60
2017-09-14T23:43:15.699Z,7.70
2017-09-14T23:45:43.295Z,7.17
2017-09-14T23:48:10.897Z,9.37
2017-09-14T23:50:38.553Z,7.20
2017-09-14T23:53:06.922Z,12.23
2017-09-14T23:55:35.331Z,11.57
2017-09-14T23:58:02.924Z,7.60
